Mount Sterling, OH (43143)

2:18 PM EDT on August 30, 2015 (GMT -0400)
APRSWXNET | | Change Station
CLOSE
Current Station
Personal Weather Station
Location: Bloomingburg, OH
Elevation: 912 ft
Nearby Weather Stations

Elev 912 ft 39.63 °N, 83.33 °W | Updated 31 minutes ago

Partly Cloudy
Partly Cloudy
82 °F
Feels Like 87 °F
N
0
Wind Variable Wind from SW
Gusts 8.0 mph

Today
High -- | Low -- °F
--% Chance of Precip.
Yesterday
High -- | Low -- °F
Precip. -- in
6:59 AM 8:07 PM
Full, 99% visible
Pressure 30.10 in
Visibility 10.0 miles
Clouds Scattered Clouds 3000 ft
Scattered Clouds 3700 ft
Scattered Clouds 6000 ft
Heat Index 87 °F
Dew Point 72 °F
Humidity 73%
Rainfall in
Snow Depth Not available.
UV 8 out of 12
Pollen 10.00 out of 12
Air Quality Not available.
Flu Activity Not available.
METAR KTZR 301745Z 19007KT 10SM SCT030 SCT037 SCT060 28/22 A3010
Pressure 30.10 in
Visibility 10.0 miles
Clouds Scattered Clouds 3000 ft
Scattered Clouds 3700 ft
Scattered Clouds 6000 ft
Heat Index 87 °F
Dew Point 72 °F
Humidity 73%
Rainfall in
Snow Depth Not available.
UV 8 out of 12
Pollen 10.00 out of 12
Air Quality Not available.
Flu Activity Not available.
METAR KTZR 301745Z 19007KT 10SM SCT030 SCT037 SCT060 28/22 A3010

10-Day Weather Forecast

×

Almanac

Astronomy

Aug. 30, 2015 Rise Set
Actual Time
Civil Twilight
Nautical Twilight
Astronomical Twilight
Moon
Length of Visible Light
Length of Day
Tomorrow will be .
, % of the Moon is Illuminated

Today's Extremes

State Highs State Lows

Community

WunderPhotos

Upload Photos

1,851,027 photos uploaded!

WunderBlogs® & News

Nearby

Air Quality

  Air Quality AQ Index Pollutant
Not available.

Snow Depth

Station Depth Elevation

Earthquake Activity

City Distance Mag. Time & Date
Minimum magnitude displayed is 2.5.

Coastal Water Temperatures

Place Temperature

Stations

Nearby Weather Stations

Station Location Temp. Windchill Dew Point Humidity Wind Precip. Elev Updated Type